DATM

Bordj Badji Mokhtar Airport

Bordj Badji Mokhtar, Algeria
METAR DATM 201200Z 36026KT 4000 DRSA NSC 20/M05 Q1019
Observed Flight Rules
Jan-20 @ 12:00 UTC (an hour ago) Instrument Flight Rules
Wind Visibility Clouds Conditions
360° at 26 knots 4,007 meters
  • Clear skies
  • Low drifting
  • Sand
Temperatures Readings
Current 20°C / 68°F
Dewpoint -5°C / 23°F
Humidity 18%
Altimeter 30.09" Hg
Pressure 1019 hPa
Elevation 396
METAR DATM 201200Z 36026KT 4000 DRSA NSC 20/M05 Q1019
Observed Flight Rules
Jan-20 @ 12:00 UTC
(an hour ago)
IFR
Wind Visibility
360° at 26 knots 4,007 meters
Clouds
  • Clear skies
Conditions
  • Low drifting
  • Sand
Temperature Dewpoint
20°C / 68°F -5°C / 23°F
Humidity Altimeter Pressure
18% 30.09" Hg 1019 hPa